createdAt,value
2019-03-20T00:00:57.334Z,53.50
2019-03-20T00:15:54.282Z,53.53
2019-03-20T00:30:54.163Z,53.88
2019-03-20T00:45:54.079Z,54.45
2019-03-20T01:00:54.140Z,54.31
2019-03-20T01:15:53.990Z,54.72
2019-03-20T01:30:54.396Z,55.35
2019-03-20T01:45:52.025Z,55.43
2019-03-20T02:00:51.967Z,56.03
2019-03-20T02:15:51.225Z,56.10
2019-03-20T02:30:51.208Z,56.33
2019-03-20T02:45:55.335Z,56.48
2019-03-20T03:00:51.308Z,56.71
2019-03-20T03:15:51.193Z,57.10
2019-03-20T03:30:51.261Z,57.28
2019-03-20T03:45:52.000Z,57.96
2019-03-20T04:00:52.423Z,58.40
2019-03-20T04:15:53.454Z,58.24
2019-03-20T04:30:51.476Z,58.45
2019-03-20T04:45:52.013Z,58.46
2019-03-20T05:00:51.612Z,58.28
2019-03-20T05:15:51.515Z,56.80
2019-03-20T05:30:51.558Z,49.89
2019-03-20T05:45:50.741Z,44.87
2019-03-20T06:00:50.764Z,40.74
2019-03-20T06:15:51.892Z,36.71
2019-03-20T06:45:51.087Z,32.59
2019-03-20T07:15:51.296Z,31.16
2019-03-20T07:30:50.763Z,30.29
2019-03-20T07:45:51.242Z,30.33
2019-03-20T08:00:51.273Z,29.46
2019-03-20T08:15:51.252Z,28.23
2019-03-20T08:30:53.112Z,28.93
2019-03-20T08:45:53.571Z,29.56
2019-03-20T09:00:53.217Z,28.84
2019-03-20T09:15:51.554Z,29.08
2019-03-20T09:30:51.900Z,29.39
2019-03-20T09:45:52.176Z,29.48
2019-03-20T10:00:51.709Z,30.61
2019-03-20T10:15:51.379Z,32.94
2019-03-20T10:30:52.123Z,32.56
2019-03-20T10:45:50.937Z,31.77
2019-03-20T11:00:51.022Z,32.30
2019-03-20T11:15:50.788Z,32.67
2019-03-20T11:30:50.859Z,35.06
2019-03-20T11:45:51.226Z,37.72
2019-03-20T12:00:51.128Z,34.50
2019-03-20T12:15:51.199Z,37.19
2019-03-20T12:30:51.205Z,39.03
2019-03-20T14:00:54.029Z,40.12
2019-03-20T14:15:51.573Z,41.00
2019-03-20T14:30:51.583Z,41.79
2019-03-20T14:45:50.864Z,43.10
2019-03-20T15:00:55.331Z,44.50
2019-03-20T15:15:55.519Z,44.51
2019-03-20T15:30:50.840Z,45.58
2019-03-20T15:45:53.651Z,46.67
2019-03-20T16:00:51.021Z,47.72
2019-03-20T16:15:51.048Z,48.40
2019-03-20T16:30:50.786Z,49.24
2019-03-20T16:45:51.256Z,50.88
2019-03-20T17:00:51.291Z,51.90
2019-03-20T17:15:54.002Z,53.00
2019-03-20T17:45:56.525Z,53.41
2019-03-20T18:00:53.789Z,53.78
2019-03-20T18:15:54.668Z,54.03
2019-03-20T18:30:53.529Z,54.73
2019-03-20T18:45:52.370Z,54.66
2019-03-20T19:00:52.919Z,55.28
2019-03-20T19:30:51.110Z,55.27
2019-03-20T19:45:51.164Z,54.81
2019-03-20T20:00:52.723Z,54.11
2019-03-20T20:30:51.489Z,56.11
2019-03-20T20:45:53.811Z,56.09
